APL Norway — A8NC4 — position and weather

sailwx.info

Track history (hours):
 
Tides and Currents Weather Stations Pressure Air Temp Water Temp Dewpoint Dewpoint Depression Visibility Wind Speed Wind Dir Waves Ship Positions

APL Norway

Last reported at 2016-Jul-24 15:32 UTC. Time now 2016-Jul-24 16:39 UTC.
Position N 22°34' E 120°19'.

Length 295 m; draft 10.6 m.

Type: Cargo ship. MMSI: 636013456.

Date/timePositionNaut miles runAvg speedWind from/ knotsBaromVisibWave heightAir tempDewpointWater temp
2016-Jul-24 15:32N 22°34' E 120°19'0 0.0
2016-Jul-24 14:32N 22°34' E 120°19'0 0.0
2016-Jul-24 13:26N 22°34' E 120°19'0 0.0
2016-Jul-24 12:32N 22°34' E 120°19'0 0.0
2016-Jul-24 09:32N 22°34' E 120°19'0 0.0
2016-Jul-24 07:26N 22°34' E 120°19'0 0.4
2016-Jul-24 06:33N 22°33' E 120°19'8 7.9
2016-Jul-24 05:33N 22°34' E 120°11'1818.0
2016-Jul-24 04:34N 22°48' E 119°59'6418.7
2016-Jul-24 01:08N 23°52' E 119°54'1119.6
2016-Jul-24 00:34N 24°02' E 120°00'6019.5
2016-Jul-23 21:27N 24°52' E 120°37'1719.0
2016-Jul-23 20:34N 25°06' E 120°49'2418.1
2016-Jul-23 19:14N 25°25' E 121°04'1518.4
2016-Jul-23 18:26N 25°37' E 121°14'1718.9
2016-Jul-23 17:33N 25°50' E 121°26'  
2016-Jul-19 13:32N 34°44' E 139°34'1717.6
2016-Jul-19 12:34N 35°00' E 139°40'1515.1
2016-Jul-19 11:33N 35°14' E 139°46'1312.6
2016-Jul-19 10:33N 35°26' E 139°42'1 0.8
2016-Jul-19 09:31N 35°26' E 139°41'0 0.0
2016-Jul-19 08:31N 35°26' E 139°41'0 0.0
2016-Jul-19 07:31N 35°26' E 139°41'0 0.0
2016-Jul-19 04:31N 35°26' E 139°41'0 0.0
2016-Jul-19 03:31N 35°26' E 139°41'0 0.0
2016-Jul-19 02:31N 35°26' E 139°41'0 0.0
2016-Jul-19 01:31N 35°26' E 139°41'0 0.0
2016-Jul-19 00:31N 35°26' E 139°41'0 0.0
2016-Jul-18 23:31N 35°26' E 139°41'1 1.4
2016-Jul-18 22:33N 35°26' E 139°43'8 8.4
2016-Jul-18 21:33N 35°18' E 139°45'1110.8
2016-Jul-18 20:33N 35°07' E 139°46'1312.9
2016-Jul-18 19:33N 34°54' E 139°42'1312.8
2016-Jul-18 18:33N 34°48' E 139°56'1615.9
2016-Jul-18 17:33N 34°53' E 140°15'2617.8
2016-Jul-18 16:05N 35°03' E 140°44'1018.0
2016-Jul-18 15:31N 35°07' E 140°55'  
Track history (hours):
 
Tides and Currents Weather Stations Pressure Air Temp Water Temp Dewpoint Dewpoint Depression Visibility Wind Speed Wind Dir Waves Ship Positions

APL Norway

Last reported at 2016-Jul-24 15:32 UTC. Time now 2016-Jul-24 16:39 UTC.
Position N 22°34' E 120°19'.

Length 295 m; draft 10.6 m.

Type: Cargo ship. MMSI: 636013456.

Date/timePositionNaut miles runAvg speedWind from/ knotsBaromVisibWave heightAir tempDewpointWater temp
2016-Jul-24 15:32N 22°34' E 120°19'0 0.0
2016-Jul-24 14:32N 22°34' E 120°19'0 0.0
2016-Jul-24 13:26N 22°34' E 120°19'0 0.0
2016-Jul-24 12:32N 22°34' E 120°19'0 0.0
2016-Jul-24 09:32N 22°34' E 120°19'0 0.0
2016-Jul-24 07:26N 22°34' E 120°19'0 0.4
2016-Jul-24 06:33N 22°33' E 120°19'8 7.9
2016-Jul-24 05:33N 22°34' E 120°11'1818.0
2016-Jul-24 04:34N 22°48' E 119°59'6418.7
2016-Jul-24 01:08N 23°52' E 119°54'1119.6
2016-Jul-24 00:34N 24°02' E 120°00'6019.5
2016-Jul-23 21:27N 24°52' E 120°37'1719.0
2016-Jul-23 20:34N 25°06' E 120°49'2418.1
2016-Jul-23 19:14N 25°25' E 121°04'1518.4
2016-Jul-23 18:26N 25°37' E 121°14'1718.9
2016-Jul-23 17:33N 25°50' E 121°26'  
2016-Jul-19 13:32N 34°44' E 139°34'1717.6
2016-Jul-19 12:34N 35°00' E 139°40'1515.1
2016-Jul-19 11:33N 35°14' E 139°46'1312.6
2016-Jul-19 10:33N 35°26' E 139°42'1 0.8
2016-Jul-19 09:31N 35°26' E 139°41'0 0.0
2016-Jul-19 08:31N 35°26' E 139°41'0 0.0
2016-Jul-19 07:31N 35°26' E 139°41'0 0.0
2016-Jul-19 04:31N 35°26' E 139°41'0 0.0
2016-Jul-19 03:31N 35°26' E 139°41'0 0.0
2016-Jul-19 02:31N 35°26' E 139°41'0 0.0
2016-Jul-19 01:31N 35°26' E 139°41'0 0.0
2016-Jul-19 00:31N 35°26' E 139°41'0 0.0
2016-Jul-18 23:31N 35°26' E 139°41'1 1.4
2016-Jul-18 22:33N 35°26' E 139°43'8 8.4
2016-Jul-18 21:33N 35°18' E 139°45'1110.8
2016-Jul-18 20:33N 35°07' E 139°46'1312.9
2016-Jul-18 19:33N 34°54' E 139°42'1312.8
2016-Jul-18 18:33N 34°48' E 139°56'1615.9
2016-Jul-18 17:33N 34°53' E 140°15'2617.8
2016-Jul-18 16:05N 35°03' E 140°44'1018.0
2016-Jul-18 15:31N 35°07' E 140°55'  

Dump ship's entire track history